DAL5730 UTDD-UBBB
Flight info
| Callsign | DAL5730 |
|---|---|
| Flight time | N/A |
| Altitude | 40000 |
| Route | SOPNO1A SOPNO Q169 INDUD Z777 MANAT/N0470F400 R226 AKRAM A477 BABUM A909 RODAR M11 AMOKU |
| Aircraft | MD11/H-SDE1E2E3FGHIJ2J3J4J5M1RWXY/LB1D1 |
Departure
| Time | 2026-04-26 15:43 |
|---|---|
| Airport | Dushanbe International Airport (UTDD) |
Arrival
| Time | N/A |
|---|---|
| Airport | Heydar Aliyev International Airport (UBBB) |
| Time | Latitude | Longitude | Altitude | Speed | Heading |
|---|---|---|---|---|---|
| 2026-04-26 14:58 | 38.54724 | 68.82302 | 2589 ft | 0 kts | 358° |
| 2026-04-26 15:13 | 38.54712 | 68.82302 | 2581 ft | 4 kts | 353° |
| 2026-04-26 15:13 | 38.54692 | 68.82307 | 2584 ft | 0 kts | 339° |
| 2026-04-26 15:16 | 38.54696 | 68.82305 | 2584 ft | 1 kts | 336° |
| 2026-04-26 15:16 | 38.54706 | 68.82294 | 2582 ft | 3 kts | 318° |
| 2026-04-26 15:16 | 38.54723 | 68.82271 | 2580 ft | 5 kts | 314° |
| 2026-04-26 15:16 | 38.54747 | 68.82233 | 2582 ft | 6 kts | 300° |
| 2026-04-26 15:17 | 38.54752 | 68.82198 | 2585 ft | 0 kts | 272° |
| 2026-04-26 15:29 | 38.54752 | 68.82193 | 2590 ft | 1 kts | 269° |
| 2026-04-26 15:29 | 38.54749 | 68.82177 | 2581 ft | 2 kts | 255° |
| 2026-04-26 15:29 | 38.54726 | 68.82111 | 2581 ft | 6 kts | 246° |
| 2026-04-26 15:30 | 38.54699 | 68.81988 | 2591 ft | 8 kts | 267° |
| 2026-04-26 15:30 | 38.54698 | 68.81908 | 2594 ft | 10 kts | 269° |
| 2026-04-26 15:30 | 38.54698 | 68.81815 | 2595 ft | 11 kts | 269° |
| 2026-04-26 15:31 | 38.54697 | 68.81753 | 2596 ft | 0 kts | 270° |
| 2026-04-26 15:32 | 38.54697 | 68.81746 | 2596 ft | 2 kts | 270° |
| 2026-04-26 15:32 | 38.54698 | 68.81721 | 2596 ft | 4 kts | 270° |
| 2026-04-26 15:33 | 38.54697 | 68.81680 | 2597 ft | 5 kts | 268° |
| 2026-04-26 15:33 | 38.54696 | 68.81624 | 2597 ft | 7 kts | 268° |
| 2026-04-26 15:33 | 38.54693 | 68.81557 | 2598 ft | 8 kts | 266° |
| 2026-04-26 15:33 | 38.54689 | 68.81476 | 2599 ft | 10 kts | 266° |
| 2026-04-26 15:34 | 38.54686 | 68.81401 | 2600 ft | 6 kts | 270° |
| 2026-04-26 15:34 | 38.54686 | 68.81400 | 2600 ft | 0 kts | 270° |
| 2026-04-26 15:35 | 38.54686 | 68.81382 | 2600 ft | 8 kts | 270° |
| 2026-04-26 15:35 | 38.54686 | 68.81295 | 2601 ft | 11 kts | 270° |
| 2026-04-26 15:35 | 38.54686 | 68.81193 | 2602 ft | 12 kts | 270° |
| 2026-04-26 15:36 | 38.54686 | 68.81080 | 2604 ft | 13 kts | 270° |
| 2026-04-26 15:36 | 38.54687 | 68.80955 | 2605 ft | 15 kts | 270° |
| 2026-04-26 15:36 | 38.54688 | 68.80821 | 2607 ft | 16 kts | 270° |
| 2026-04-26 15:36 | 38.54687 | 68.80708 | 2608 ft | 7 kts | 265° |
| 2026-04-26 15:37 | 38.54678 | 68.80681 | 2609 ft | 2 kts | 235° |
| 2026-04-26 15:37 | 38.54662 | 68.80667 | 2609 ft | 3 kts | 206° |
| 2026-04-26 15:37 | 38.54641 | 68.80665 | 2609 ft | 4 kts | 179° |
| 2026-04-26 15:37 | 38.54604 | 68.80666 | 2609 ft | 7 kts | 179° |
| 2026-04-26 15:38 | 38.54547 | 68.80666 | 2609 ft | 10 kts | 180° |
| 2026-04-26 15:38 | 38.54471 | 68.80665 | 2609 ft | 12 kts | 180° |
| 2026-04-26 15:38 | 38.54446 | 68.80665 | 2609 ft | 0 kts | 180° |
| 2026-04-26 15:41 | 38.54444 | 68.80665 | 2609 ft | 2 kts | 180° |
| 2026-04-26 15:41 | 38.54420 | 68.80665 | 2609 ft | 5 kts | 178° |
| 2026-04-26 15:41 | 38.54386 | 68.80687 | 2608 ft | 6 kts | 135° |
| 2026-04-26 15:42 | 38.54372 | 68.80731 | 2608 ft | 5 kts | 102° |
| 2026-04-26 15:42 | 38.54370 | 68.80751 | 2608 ft | 0 kts | 92° |
| 2026-04-26 15:42 | 38.54370 | 68.80772 | 2608 ft | 16 kts | 91° |
| 2026-04-26 15:43 | 38.54373 | 68.81335 | 2602 ft | 110 kts | 90° |
| 2026-04-26 15:43 | 38.54373 | 68.82663 | 2617 ft | 181 kts | 89° |
| 2026-04-26 15:43 | 38.54376 | 68.85858 | 4666 ft | 168 kts | 88° |
| 2026-04-26 15:44 | 38.54373 | 68.87353 | 5676 ft | 168 kts | 88° |
| 2026-04-26 15:44 | 38.54369 | 68.90872 | 6552 ft | 225 kts | 89° |
| 2026-04-26 15:44 | 38.54363 | 68.92890 | 7225 ft | 228 kts | 90° |
| 2026-04-26 15:45 | 38.54350 | 68.96967 | 8587 ft | 232 kts | 90° |
| 2026-04-26 15:45 | 38.54343 | 68.99107 | 8973 ft | 256 kts | 90° |
| 2026-04-26 15:46 | 38.54317 | 69.04047 | 10344 ft | 291 kts | 92° |
| 2026-04-26 15:46 | 38.54011 | 69.06762 | 10483 ft | 328 kts | 107° |
| 2026-04-26 15:46 | 38.52825 | 69.09370 | 10905 ft | 351 kts | 135° |
| 2026-04-26 15:46 | 38.51510 | 69.10621 | 11599 ft | 354 kts | 152° |
| 2026-04-26 15:47 | 38.48340 | 69.11650 | 12990 ft | 361 kts | 175° |
| 2026-04-26 15:47 | 38.43282 | 69.11158 | 14828 ft | 371 kts | 192° |
| 2026-04-26 15:47 | 38.40807 | 69.10134 | 15678 ft | 377 kts | 203° |
| 2026-04-26 15:48 | 38.38547 | 69.08411 | 16517 ft | 382 kts | 218° |
| 2026-04-26 15:48 | 38.36654 | 69.05973 | 17001 ft | 391 kts | 233° |
| 2026-04-26 15:48 | 38.35371 | 69.02925 | 17398 ft | 394 kts | 249° |
| 2026-04-26 15:48 | 38.34796 | 68.99513 | 17791 ft | 396 kts | 263° |
| 2026-04-26 15:49 | 38.34701 | 68.96005 | 17951 ft | 398 kts | 269° |
| 2026-04-26 15:49 | 38.34791 | 68.92489 | 18010 ft | 396 kts | 272° |
| 2026-04-26 15:49 | 38.35078 | 68.88988 | 18010 ft | 398 kts | 278° |
| 2026-04-26 15:49 | 38.35812 | 68.85592 | 18002 ft | 400 kts | 291° |
| 2026-04-26 15:50 | 38.37168 | 68.82502 | 17988 ft | 402 kts | 306° |
| 2026-04-26 15:50 | 38.39038 | 68.79847 | 17991 ft | 403 kts | 315° |
| 2026-04-26 15:50 | 38.41113 | 68.77434 | 17991 ft | 404 kts | 318° |
| 2026-04-26 15:50 | 38.43235 | 68.75089 | 18003 ft | 404 kts | 318° |
| 2026-04-26 15:51 | 38.45353 | 68.72724 | 18012 ft | 404 kts | 318° |
| 2026-04-26 15:51 | 38.47446 | 68.70329 | 18013 ft | 404 kts | 317° |
| 2026-04-26 15:51 | 38.49518 | 68.67907 | 18015 ft | 404 kts | 316° |
| 2026-04-26 15:51 | 38.51526 | 68.65409 | 18000 ft | 404 kts | 311° |
| 2026-04-26 15:52 | 38.53215 | 68.62552 | 17996 ft | 403 kts | 298° |
| 2026-04-26 15:52 | 38.54267 | 68.59267 | 18001 ft | 400 kts | 282° |
| 2026-04-26 15:52 | 38.54626 | 68.55759 | 18026 ft | 398 kts | 271° |
| 2026-04-26 15:52 | 38.54649 | 68.53415 | 18028 ft | 398 kts | 268° |
| 2026-04-26 15:53 | 38.54530 | 68.48673 | 18023 ft | 401 kts | 267° |
| 2026-04-26 15:53 | 38.54434 | 68.45115 | 18024 ft | 402 kts | 268° |
| 2026-04-26 15:53 | 38.54371 | 68.41548 | 18021 ft | 402 kts | 269° |
| 2026-04-26 15:53 | 38.54338 | 68.37977 | 18034 ft | 402 kts | 269° |
| 2026-04-26 15:54 | 38.54327 | 68.34407 | 18027 ft | 402 kts | 269° |
| 2026-04-26 15:54 | 38.54326 | 68.30838 | 18016 ft | 402 kts | 270° |
| 2026-04-26 15:54 | 38.54331 | 68.27314 | 18016 ft | 402 kts | 270° |
| 2026-04-26 15:54 | 38.54337 | 68.23742 | 18027 ft | 402 kts | 270° |
| 2026-04-26 15:55 | 38.54342 | 68.20194 | 18009 ft | 402 kts | 270° |
| 2026-04-26 15:55 | 38.54345 | 68.16622 | 18012 ft | 402 kts | 270° |
| 2026-04-26 15:55 | 38.54347 | 68.13054 | 18006 ft | 402 kts | 270° |
| 2026-04-26 15:55 | 38.54349 | 68.09482 | 18038 ft | 402 kts | 270° |
| 2026-04-26 15:56 | 38.54398 | 68.05907 | 18060 ft | 402 kts | 272° |
| 2026-04-26 15:56 | 38.54532 | 68.02344 | 18792 ft | 402 kts | 273° |
| 2026-04-26 15:56 | 38.54700 | 67.98776 | 19596 ft | 402 kts | 273° |
| 2026-04-26 15:56 | 38.54877 | 67.95203 | 20310 ft | 404 kts | 273° |
| 2026-04-26 15:57 | 38.55056 | 67.91612 | 20944 ft | 408 kts | 273° |
| 2026-04-26 15:57 | 38.55234 | 67.87986 | 21694 ft | 408 kts | 273° |
| 2026-04-26 15:57 | 38.55409 | 67.84371 | 22408 ft | 410 kts | 272° |
| 2026-04-26 15:57 | 38.55524 | 67.81964 | 22895 ft | 411 kts | 272° |
| 2026-04-26 15:58 | 38.55754 | 67.77067 | 23839 ft | 415 kts | 272° |
| 2026-04-26 15:58 | 38.55924 | 67.73371 | 24453 ft | 418 kts | 272° |
| 2026-04-26 15:58 | 38.56091 | 67.69651 | 24994 ft | 421 kts | 272° |
| 2026-04-26 15:58 | 38.56259 | 67.65898 | 25619 ft | 424 kts | 272° |
| 2026-04-26 15:59 | 38.56428 | 67.62122 | 26243 ft | 428 kts | 272° |
| 2026-04-26 15:59 | 38.56598 | 67.58314 | 26847 ft | 432 kts | 272° |
| 2026-04-26 15:59 | 38.56771 | 67.54466 | 27456 ft | 435 kts | 272° |
| 2026-04-26 15:59 | 38.56942 | 67.50635 | 27978 ft | 440 kts | 272° |
| 2026-04-26 16:00 | 38.57115 | 67.46731 | 28564 ft | 444 kts | 272° |
| 2026-04-26 16:00 | 38.57290 | 67.42775 | 29142 ft | 448 kts | 272° |
| 2026-04-26 16:00 | 38.57464 | 67.38784 | 29719 ft | 451 kts | 272° |
| 2026-04-26 16:00 | 38.57638 | 67.34770 | 30304 ft | 455 kts | 272° |
| 2026-04-26 16:01 | 38.57812 | 67.30728 | 30854 ft | 455 kts | 272° |
| 2026-04-26 16:01 | 38.57984 | 67.26709 | 31600 ft | 450 kts | 271° |
| 2026-04-26 16:01 | 38.58150 | 67.22748 | 32479 ft | 441 kts | 271° |
| 2026-04-26 16:01 | 38.58306 | 67.18888 | 33538 ft | 430 kts | 271° |
| 2026-04-26 16:02 | 38.58458 | 67.15118 | 34377 ft | 422 kts | 271° |
| 2026-04-26 16:02 | 38.58606 | 67.11395 | 34997 ft | 418 kts | 271° |
| 2026-04-26 16:02 | 38.58753 | 67.07719 | 35496 ft | 416 kts | 271° |
| 2026-04-26 16:02 | 38.58853 | 67.05228 | 35817 ft | 414 kts | 271° |
| 2026-04-26 16:03 | 38.59047 | 67.00370 | 36423 ft | 413 kts | 271° |
| 2026-04-26 16:03 | 38.59193 | 66.96686 | 36822 ft | 413 kts | 271° |
| 2026-04-26 16:03 | 38.59338 | 66.93022 | 37258 ft | 412 kts | 271° |
| 2026-04-26 16:03 | 38.59482 | 66.89374 | 37687 ft | 410 kts | 271° |
| 2026-04-26 16:04 | 38.59624 | 66.85738 | 38124 ft | 409 kts | 271° |
| 2026-04-26 16:04 | 38.59764 | 66.82118 | 38541 ft | 408 kts | 271° |
| 2026-04-26 16:04 | 38.59902 | 66.78498 | 38921 ft | 406 kts | 271° |
| 2026-04-26 16:04 | 38.60035 | 66.74890 | 39192 ft | 406 kts | 271° |
| 2026-04-26 16:05 | 38.60164 | 66.71290 | 39446 ft | 406 kts | 271° |
| 2026-04-26 16:05 | 38.60295 | 66.67675 | 39697 ft | 406 kts | 271° |
| 2026-04-26 16:05 | 38.60426 | 66.64069 | 39944 ft | 406 kts | 271° |
| 2026-04-26 16:05 | 38.60557 | 66.60454 | 40077 ft | 408 kts | 271° |
| 2026-04-26 16:06 | 38.60688 | 66.56851 | 40109 ft | 407 kts | 271° |
| 2026-04-26 16:06 | 38.60950 | 66.49639 | 40106 ft | 406 kts | 271° |
| 2026-04-26 16:07 | 38.61204 | 66.42486 | 40111 ft | 405 kts | 271° |
| 2026-04-26 16:07 | 38.61456 | 66.35288 | 40105 ft | 405 kts | 271° |
| 2026-04-26 16:08 | 38.61703 | 66.28076 | 40099 ft | 405 kts | 271° |
| 2026-04-26 16:08 | 38.62431 | 66.20938 | 40099 ft | 406 kts | 281° |
| 2026-04-26 16:09 | 38.63979 | 66.13967 | 40096 ft | 408 kts | 284° |
| 2026-04-26 16:09 | 38.65649 | 66.07036 | 40096 ft | 408 kts | 284° |
| 2026-04-26 16:10 | 38.67281 | 66.00097 | 40085 ft | 408 kts | 284° |
| 2026-04-26 16:10 | 38.68883 | 65.93144 | 40079 ft | 408 kts | 283° |
| 2026-04-26 16:11 | 38.70467 | 65.86208 | 40076 ft | 407 kts | 283° |
| 2026-04-26 16:11 | 38.72048 | 65.79261 | 40074 ft | 406 kts | 283° |
| 2026-04-26 16:12 | 38.73623 | 65.72320 | 40097 ft | 406 kts | 283° |
| 2026-04-26 16:12 | 38.75731 | 65.62990 | 40077 ft | 411 kts | 283° |
| 2026-04-26 16:13 | 38.77314 | 65.55967 | 40087 ft | 410 kts | 283° |
| 2026-04-26 16:13 | 38.78890 | 65.48954 | 40088 ft | 410 kts | 283° |
| 2026-04-26 16:14 | 38.80462 | 65.41931 | 40094 ft | 410 kts | 283° |
| 2026-04-26 16:15 | 38.82812 | 65.31395 | 40097 ft | 410 kts | 283° |
| 2026-04-26 16:15 | 38.84370 | 65.24386 | 40115 ft | 408 kts | 283° |
| 2026-04-26 16:16 | 38.86621 | 65.13849 | 40106 ft | 409 kts | 282° |
| 2026-04-26 16:16 | 38.88105 | 65.06803 | 40109 ft | 409 kts | 282° |
| 2026-04-26 16:17 | 38.89623 | 64.99768 | 40103 ft | 410 kts | 283° |
| 2026-04-26 16:17 | 38.91158 | 64.92721 | 40112 ft | 411 kts | 283° |
| 2026-04-26 16:18 | 38.93459 | 64.82138 | 40112 ft | 411 kts | 283° |
| 2026-04-26 16:19 | 38.95757 | 64.71508 | 40112 ft | 413 kts | 282° |
| 2026-04-26 16:20 | 38.98046 | 64.60871 | 40110 ft | 413 kts | 282° |
| 2026-04-26 16:20 | 39.00332 | 64.50196 | 40117 ft | 413 kts | 282° |
| 2026-04-26 16:21 | 39.01849 | 64.43078 | 40114 ft | 414 kts | 282° |
| 2026-04-26 16:21 | 39.03365 | 64.35948 | 40113 ft | 413 kts | 282° |
| 2026-04-26 16:22 | 39.04875 | 64.28818 | 40128 ft | 413 kts | 282° |
| 2026-04-26 16:22 | 39.06381 | 64.21681 | 40122 ft | 414 kts | 282° |
| 2026-04-26 16:23 | 39.07894 | 64.14541 | 40119 ft | 414 kts | 283° |
| 2026-04-26 16:23 | 39.09488 | 64.07420 | 40119 ft | 414 kts | 283° |
| 2026-04-26 16:24 | 39.11122 | 64.00317 | 40121 ft | 414 kts | 283° |
| 2026-04-26 16:24 | 39.12763 | 63.93208 | 40122 ft | 414 kts | 283° |
| 2026-04-26 16:25 | 39.14393 | 63.86115 | 40143 ft | 414 kts | 283° |
| 2026-04-26 16:25 | 39.16014 | 63.79039 | 40127 ft | 413 kts | 283° |
| 2026-04-26 16:26 | 39.17357 | 63.73154 | 40136 ft | 413 kts | 283° |
| 2026-04-26 16:26 | 39.19247 | 63.64849 | 40132 ft | 413 kts | 283° |
| 2026-04-26 16:27 | 39.20859 | 63.57742 | 40133 ft | 413 kts | 283° |
| 2026-04-26 16:27 | 39.22466 | 63.50637 | 40130 ft | 413 kts | 283° |
| 2026-04-26 16:28 | 39.24069 | 63.43523 | 40132 ft | 413 kts | 283° |
| 2026-04-26 16:28 | 39.25667 | 63.36413 | 40142 ft | 413 kts | 283° |
| 2026-04-26 16:29 | 39.27261 | 63.29292 | 40138 ft | 413 kts | 283° |
| 2026-04-26 16:29 | 39.28852 | 63.22166 | 40147 ft | 413 kts | 283° |
| 2026-04-26 16:30 | 39.30434 | 63.15058 | 40148 ft | 413 kts | 283° |
| 2026-04-26 16:30 | 39.31995 | 63.07923 | 40151 ft | 413 kts | 283° |
| 2026-04-26 16:31 | 39.33546 | 63.00783 | 40159 ft | 413 kts | 283° |
| 2026-04-26 16:31 | 39.35110 | 62.93633 | 40157 ft | 414 kts | 283° |
| 2026-04-26 16:32 | 39.36413 | 62.87688 | 40154 ft | 413 kts | 283° |
| 2026-04-26 16:32 | 39.38244 | 62.79317 | 40160 ft | 415 kts | 283° |
| 2026-04-26 16:33 | 39.39807 | 62.72144 | 40167 ft | 415 kts | 283° |
| 2026-04-26 16:33 | 39.41365 | 62.64974 | 40156 ft | 415 kts | 283° |
| 2026-04-26 16:34 | 39.42918 | 62.57798 | 40161 ft | 415 kts | 282° |
| 2026-04-26 16:34 | 39.44468 | 62.50614 | 40165 ft | 415 kts | 282° |
| 2026-04-26 16:35 | 39.46014 | 62.43427 | 40168 ft | 416 kts | 282° |
| 2026-04-26 16:35 | 39.47558 | 62.36222 | 40168 ft | 416 kts | 282° |
| 2026-04-26 16:36 | 39.49097 | 62.29021 | 40167 ft | 416 kts | 282° |
| 2026-04-26 16:36 | 39.50633 | 62.21808 | 40168 ft | 416 kts | 282° |
| 2026-04-26 16:37 | 39.52165 | 62.14587 | 40172 ft | 416 kts | 282° |
| 2026-04-26 16:37 | 39.53687 | 62.07352 | 40177 ft | 417 kts | 282° |
| 2026-04-26 16:38 | 39.55182 | 62.00100 | 40173 ft | 417 kts | 282° |
| 2026-04-26 16:38 | 39.56684 | 61.92860 | 40174 ft | 417 kts | 282° |
| 2026-04-26 16:39 | 39.58193 | 61.85619 | 40166 ft | 416 kts | 282° |
| 2026-04-26 16:39 | 39.59696 | 61.78395 | 40169 ft | 416 kts | 282° |
| 2026-04-26 16:40 | 39.61197 | 61.71157 | 40170 ft | 416 kts | 282° |
| 2026-04-26 16:40 | 39.62694 | 61.63917 | 40174 ft | 416 kts | 282° |
| 2026-04-26 16:41 | 39.64187 | 61.56667 | 40173 ft | 416 kts | 282° |
| 2026-04-26 16:41 | 39.65674 | 61.49427 | 40166 ft | 416 kts | 282° |
| 2026-04-26 16:42 | 39.67156 | 61.42179 | 40167 ft | 416 kts | 282° |
| 2026-04-26 16:42 | 39.68635 | 61.34928 | 40166 ft | 416 kts | 281° |
| 2026-04-26 16:43 | 39.70099 | 61.27720 | 40193 ft | 416 kts | 281° |
| 2026-04-26 16:43 | 39.71569 | 61.20461 | 40168 ft | 416 kts | 281° |
| 2026-04-26 16:44 | 39.73037 | 61.13186 | 40167 ft | 416 kts | 281° |
| 2026-04-26 16:44 | 39.74495 | 61.05929 | 40167 ft | 416 kts | 281° |
| 2026-04-26 16:45 | 39.75921 | 60.98631 | 40166 ft | 416 kts | 281° |
| 2026-04-26 16:45 | 39.77340 | 60.91337 | 40170 ft | 416 kts | 281° |
| 2026-04-26 16:46 | 39.78772 | 60.84026 | 40176 ft | 416 kts | 281° |
| 2026-04-26 16:46 | 39.80205 | 60.76722 | 40174 ft | 416 kts | 281° |
| 2026-04-26 16:47 | 39.81634 | 60.69413 | 40165 ft | 416 kts | 281° |
| 2026-04-26 16:47 | 39.83060 | 60.62099 | 40167 ft | 417 kts | 281° |
| 2026-04-26 16:48 | 39.84480 | 60.54783 | 40171 ft | 417 kts | 281° |
| 2026-04-26 16:48 | 39.85895 | 60.47466 | 40170 ft | 417 kts | 281° |
| 2026-04-26 16:49 | 39.87306 | 60.40144 | 40172 ft | 417 kts | 281° |
| 2026-04-26 16:49 | 39.88711 | 60.32826 | 40168 ft | 417 kts | 281° |
| 2026-04-26 16:50 | 39.89625 | 60.25411 | 40172 ft | 414 kts | 270° |
| 2026-04-26 16:50 | 39.89731 | 60.17985 | 40172 ft | 413 kts | 268° |
| 2026-04-26 16:51 | 39.89727 | 60.10507 | 40166 ft | 414 kts | 268° |
| 2026-04-26 16:51 | 39.89763 | 60.03023 | 40164 ft | 414 kts | 268° |
| 2026-04-26 16:52 | 39.89802 | 59.98014 | 40164 ft | 413 kts | 268° |
| 2026-04-26 16:52 | 39.89887 | 59.88063 | 40168 ft | 413 kts | 268° |
| 2026-04-26 16:53 | 39.89938 | 59.81834 | 40161 ft | 413 kts | 268° |
| 2026-04-26 16:53 | 39.89993 | 59.74352 | 40161 ft | 414 kts | 268° |
| 2026-04-26 16:54 | 39.90043 | 59.66877 | 40163 ft | 414 kts | 268° |
| 2026-04-26 16:54 | 39.90089 | 59.59388 | 40166 ft | 414 kts | 268° |
| 2026-04-26 16:55 | 39.90130 | 59.51895 | 40162 ft | 414 kts | 268° |
| 2026-04-26 16:55 | 39.90166 | 59.44393 | 40160 ft | 414 kts | 268° |
| 2026-04-26 16:56 | 39.90188 | 59.33139 | 40154 ft | 414 kts | 268° |
| 2026-04-26 16:57 | 39.90174 | 59.25637 | 40153 ft | 415 kts | 268° |
| 2026-04-26 16:57 | 39.90166 | 59.14379 | 40149 ft | 414 kts | 268° |
| 2026-04-26 16:58 | 39.90159 | 59.08148 | 40147 ft | 413 kts | 268° |
| 2026-04-26 16:59 | 39.90112 | 58.95624 | 40146 ft | 415 kts | 267° |
| 2026-04-26 17:00 | 39.90046 | 58.80637 | 40148 ft | 415 kts | 267° |
| 2026-04-26 17:00 | 39.89986 | 58.69374 | 40149 ft | 415 kts | 267° |
| 2026-04-26 17:01 | 39.89940 | 58.61874 | 40152 ft | 415 kts | 267° |
| 2026-04-26 17:01 | 39.89889 | 58.54368 | 40159 ft | 415 kts | 267° |
| 2026-04-26 17:02 | 39.89833 | 58.46870 | 40154 ft | 414 kts | 267° |
| 2026-04-26 17:02 | 39.89773 | 58.39410 | 40149 ft | 415 kts | 267° |
| 2026-04-26 17:03 | 39.89707 | 58.31906 | 40149 ft | 415 kts | 267° |
| 2026-04-26 17:03 | 39.89637 | 58.24389 | 40149 ft | 415 kts | 267° |
| 2026-04-26 17:04 | 39.89560 | 58.16894 | 40144 ft | 416 kts | 267° |
| 2026-04-26 17:04 | 39.89474 | 58.09366 | 40146 ft | 416 kts | 267° |
| 2026-04-26 17:05 | 39.89401 | 58.01848 | 40149 ft | 416 kts | 267° |
| 2026-04-26 17:05 | 39.89333 | 57.94283 | 40149 ft | 420 kts | 267° |
| 2026-04-26 17:06 | 39.89262 | 57.86601 | 40155 ft | 426 kts | 267° |
| 2026-04-26 17:06 | 39.89188 | 57.78921 | 40149 ft | 427 kts | 267° |
| 2026-04-26 17:07 | 39.89108 | 57.71187 | 40146 ft | 427 kts | 267° |
| 2026-04-26 17:07 | 39.89022 | 57.63460 | 40145 ft | 427 kts | 267° |
| 2026-04-26 17:08 | 39.88931 | 57.55716 | 40144 ft | 428 kts | 266° |
| 2026-04-26 17:08 | 39.88835 | 57.47994 | 40143 ft | 428 kts | 266° |
| 2026-04-26 17:09 | 39.88750 | 57.41506 | 40143 ft | 428 kts | 266° |
| 2026-04-26 17:09 | 39.88627 | 57.32505 | 40143 ft | 428 kts | 266° |
| 2026-04-26 17:10 | 39.88515 | 57.24753 | 40146 ft | 428 kts | 266° |
| 2026-04-26 17:10 | 39.88398 | 57.16965 | 40141 ft | 427 kts | 266° |
| 2026-04-26 17:11 | 39.88274 | 57.09277 | 40141 ft | 427 kts | 266° |
| 2026-04-26 17:11 | 39.88117 | 57.01533 | 40137 ft | 428 kts | 266° |
| 2026-04-26 17:12 | 39.87893 | 56.89908 | 40143 ft | 428 kts | 266° |
| 2026-04-26 17:13 | 39.87681 | 56.78295 | 40137 ft | 429 kts | 266° |
| 2026-04-26 17:14 | 39.87458 | 56.66649 | 40132 ft | 429 kts | 266° |
| 2026-04-26 17:14 | 39.87224 | 56.55007 | 40130 ft | 429 kts | 266° |
| 2026-04-26 17:15 | 39.86977 | 56.43357 | 40127 ft | 429 kts | 266° |
| 2026-04-26 17:16 | 39.86806 | 56.35598 | 40127 ft | 429 kts | 266° |
| 2026-04-26 17:16 | 39.86630 | 56.27829 | 40121 ft | 429 kts | 266° |
| 2026-04-26 17:17 | 39.86438 | 56.20073 | 40123 ft | 429 kts | 266° |
| 2026-04-26 17:17 | 39.86235 | 56.12339 | 40116 ft | 429 kts | 266° |
| 2026-04-26 17:18 | 39.86041 | 56.04569 | 40118 ft | 429 kts | 266° |
| 2026-04-26 17:18 | 39.85849 | 55.96846 | 40118 ft | 429 kts | 266° |
| 2026-04-26 17:19 | 39.85554 | 55.85194 | 40116 ft | 429 kts | 266° |
| 2026-04-26 17:19 | 39.85350 | 55.77422 | 40116 ft | 429 kts | 266° |
| 2026-04-26 17:20 | 39.85210 | 55.72231 | 40111 ft | 429 kts | 266° |
| 2026-04-26 17:20 | 39.84926 | 55.61898 | 40116 ft | 429 kts | 266° |
| 2026-04-26 17:21 | 39.84707 | 55.54137 | 40113 ft | 429 kts | 265° |
| 2026-04-26 17:21 | 39.84482 | 55.46365 | 40113 ft | 429 kts | 265° |
| 2026-04-26 17:22 | 39.84253 | 55.38621 | 40113 ft | 430 kts | 265° |
| 2026-04-26 17:22 | 39.84017 | 55.30847 | 40108 ft | 430 kts | 265° |
| 2026-04-26 17:23 | 39.83777 | 55.23077 | 40106 ft | 430 kts | 265° |
| 2026-04-26 17:23 | 39.83528 | 55.15307 | 40108 ft | 430 kts | 265° |
| 2026-04-26 17:24 | 39.83254 | 55.07537 | 40105 ft | 430 kts | 265° |
| 2026-04-26 17:24 | 39.83004 | 54.99764 | 40105 ft | 430 kts | 265° |
| 2026-04-26 17:25 | 39.82778 | 54.91983 | 40108 ft | 431 kts | 265° |
| 2026-04-26 17:25 | 39.82554 | 54.84198 | 40108 ft | 431 kts | 265° |
| 2026-04-26 17:26 | 39.82469 | 54.76417 | 40107 ft | 432 kts | 272° |
| 2026-04-26 17:26 | 39.83675 | 54.68730 | 40090 ft | 437 kts | 282° |
| 2026-04-26 17:27 | 39.85412 | 54.61140 | 40104 ft | 438 kts | 283° |
| 2026-04-26 17:27 | 39.87127 | 54.53545 | 40102 ft | 437 kts | 282° |
| 2026-04-26 17:28 | 39.88775 | 54.45909 | 40105 ft | 437 kts | 282° |
| 2026-04-26 17:28 | 39.90378 | 54.38276 | 40094 ft | 437 kts | 282° |
| 2026-04-26 17:29 | 39.91435 | 54.33212 | 40091 ft | 437 kts | 282° |
| 2026-04-26 17:29 | 39.93560 | 54.23038 | 40095 ft | 437 kts | 282° |
| 2026-04-26 17:30 | 39.95153 | 54.15394 | 40084 ft | 437 kts | 282° |
| 2026-04-26 17:30 | 39.96741 | 54.07749 | 40104 ft | 437 kts | 281° |
| 2026-04-26 17:31 | 39.98322 | 54.00113 | 40092 ft | 437 kts | 281° |
| 2026-04-26 17:31 | 39.99901 | 53.92455 | 40082 ft | 437 kts | 281° |
| 2026-04-26 17:32 | 40.01474 | 53.84800 | 40079 ft | 437 kts | 281° |
| 2026-04-26 17:32 | 40.03043 | 53.77135 | 40077 ft | 437 kts | 281° |
| 2026-04-26 17:33 | 40.04606 | 53.69475 | 40081 ft | 436 kts | 281° |
| 2026-04-26 17:34 | 40.06937 | 53.57991 | 40078 ft | 436 kts | 281° |
| 2026-04-26 17:34 | 40.08485 | 53.50331 | 40087 ft | 436 kts | 281° |
| 2026-04-26 17:35 | 40.10025 | 53.42681 | 40083 ft | 435 kts | 281° |
| 2026-04-26 17:35 | 40.11526 | 53.35029 | 40082 ft | 434 kts | 281° |
| 2026-04-26 17:36 | 40.12759 | 53.28692 | 40078 ft | 434 kts | 281° |
| 2026-04-26 17:36 | 40.14256 | 53.21055 | 40077 ft | 434 kts | 281° |
| 2026-04-26 17:37 | 40.15755 | 53.13421 | 40079 ft | 432 kts | 281° |
| 2026-04-26 17:37 | 40.17224 | 53.05948 | 40079 ft | 421 kts | 281° |
| 2026-04-26 17:38 | 40.19385 | 52.94859 | 40082 ft | 418 kts | 281° |
| 2026-04-26 17:38 | 40.20814 | 52.87485 | 40081 ft | 418 kts | 281° |
| 2026-04-26 17:39 | 40.22242 | 52.80097 | 40082 ft | 418 kts | 281° |
| 2026-04-26 17:39 | 40.23665 | 52.72711 | 40083 ft | 418 kts | 281° |
| 2026-04-26 17:40 | 40.24855 | 52.66514 | 40080 ft | 419 kts | 280° |
| 2026-04-26 17:40 | 40.25792 | 52.61627 | 39458 ft | 412 kts | 280° |
| 2026-04-26 17:40 | 40.26483 | 52.58003 | 39070 ft | 409 kts | 280° |
| 2026-04-26 17:41 | 40.27166 | 52.54392 | 38710 ft | 409 kts | 279° |
| 2026-04-26 17:41 | 40.27850 | 52.50778 | 38036 ft | 409 kts | 279° |
| 2026-04-26 17:41 | 40.28537 | 52.47161 | 37367 ft | 410 kts | 280° |
| 2026-04-26 17:41 | 40.29230 | 52.43524 | 36744 ft | 411 kts | 280° |
| 2026-04-26 17:42 | 40.29924 | 52.39887 | 36166 ft | 413 kts | 280° |
| 2026-04-26 17:42 | 40.30625 | 52.36218 | 35586 ft | 415 kts | 280° |
| 2026-04-26 17:42 | 40.31326 | 52.32544 | 34956 ft | 417 kts | 280° |
| 2026-04-26 17:42 | 40.32031 | 52.28843 | 34330 ft | 419 kts | 280° |
| 2026-04-26 17:43 | 40.32737 | 52.25133 | 33654 ft | 421 kts | 280° |
| 2026-04-26 17:43 | 40.33447 | 52.21394 | 32950 ft | 423 kts | 280° |
| 2026-04-26 17:43 | 40.34158 | 52.17639 | 32279 ft | 425 kts | 281° |
| 2026-04-26 17:43 | 40.34870 | 52.13875 | 31609 ft | 426 kts | 281° |
| 2026-04-26 17:44 | 40.35583 | 52.10099 | 30980 ft | 428 kts | 281° |
| 2026-04-26 17:44 | 40.36298 | 52.06304 | 30366 ft | 430 kts | 281° |
| 2026-04-26 17:44 | 40.37014 | 52.02497 | 29657 ft | 431 kts | 281° |
| 2026-04-26 17:44 | 40.37734 | 51.98665 | 28992 ft | 434 kts | 282° |
| 2026-04-26 17:45 | 40.38457 | 51.94808 | 28470 ft | 436 kts | 282° |
| 2026-04-26 17:45 | 40.39180 | 51.90943 | 28019 ft | 437 kts | 282° |
| 2026-04-26 17:45 | 40.39906 | 51.87055 | 27572 ft | 441 kts | 282° |
| 2026-04-26 17:45 | 40.40637 | 51.83125 | 27138 ft | 444 kts | 282° |
| 2026-04-26 17:46 | 40.41370 | 51.79184 | 26707 ft | 446 kts | 282° |
| 2026-04-26 17:46 | 40.42108 | 51.75206 | 26228 ft | 449 kts | 282° |
| 2026-04-26 17:46 | 40.42847 | 51.71213 | 25814 ft | 451 kts | 282° |
| 2026-04-26 17:46 | 40.43587 | 51.67206 | 25401 ft | 454 kts | 282° |
| 2026-04-26 17:47 | 40.44333 | 51.63159 | 24852 ft | 458 kts | 282° |
| 2026-04-26 17:47 | 40.44829 | 51.60465 | 24444 ft | 456 kts | 282° |
| 2026-04-26 17:47 | 40.45819 | 51.55063 | 23546 ft | 453 kts | 282° |
| 2026-04-26 17:47 | 40.46488 | 51.51043 | 23043 ft | 450 kts | 280° |
| 2026-04-26 17:48 | 40.46996 | 51.47007 | 22625 ft | 447 kts | 277° |
| 2026-04-26 17:48 | 40.47395 | 51.42970 | 22248 ft | 444 kts | 276° |
| 2026-04-26 17:48 | 40.47748 | 51.38965 | 22116 ft | 438 kts | 276° |
| 2026-04-26 17:48 | 40.48091 | 51.34981 | 22095 ft | 440 kts | 276° |
| 2026-04-26 17:49 | 40.48442 | 51.30983 | 22091 ft | 440 kts | 276° |
| 2026-04-26 17:49 | 40.48802 | 51.26978 | 22091 ft | 440 kts | 276° |
| 2026-04-26 17:49 | 40.49168 | 51.22978 | 22087 ft | 440 kts | 276° |
| 2026-04-26 17:49 | 40.49537 | 51.18982 | 21896 ft | 435 kts | 276° |
| 2026-04-26 17:50 | 40.49900 | 51.15061 | 20503 ft | 431 kts | 276° |
| 2026-04-26 17:50 | 40.50259 | 51.11169 | 19289 ft | 426 kts | 276° |
| 2026-04-26 17:50 | 40.50612 | 51.07332 | 18167 ft | 419 kts | 276° |
| 2026-04-26 17:50 | 40.50958 | 51.03560 | 16988 ft | 412 kts | 276° |
| 2026-04-26 17:51 | 40.51296 | 50.99871 | 15980 ft | 402 kts | 276° |